Time;durP1;ratioP1;P1;durP2;ratioP2;P2;SDS_P1;SDS_P2;PMS_P1;PMS_P2;Temp;Humidity;BMP_temperature;BMP_pressure;BME280_temperature;BME280_humidity;BME280_pressure;Samples;Min_cycle;Max_cycle;Signal;HPM_P1;HPM_P2
2023/08/12 00:01:50;;;;;;;12.98;8.40;;;20.20;99.90;;;;;;5069552;28;20070;-57
2023/08/12 00:04:16;;;;;;;13.52;9.40;;;20.20;99.90;;;;;;5059903;28;20041;-57
2023/08/12 00:06:42;;;;;;;15.30;9.52;;;20.20;99.90;;;;;;5070712;28;20052;-57
2023/08/12 00:09:10;;;;;;;16.17;10.35;;;20.20;99.90;;;;;;5061531;28;20036;-56
2023/08/12 00:11:36;;;;;;;14.68;9.63;;;20.20;99.90;;;;;;5074786;28;20036;-57
2023/08/12 00:14:01;;;;;;;18.88;10.77;;;20.20;99.90;;;;;;5070280;28;20401;-56
2023/08/12 00:16:28;;;;;;;14.93;10.82;;;20.10;99.90;;;;;;5067440;28;20142;-56
2023/08/12 00:18:53;;;;;;;17.75;10.93;;;20.10;99.90;;;;;;5069179;28;20052;-56
2023/08/12 00:21:19;;;;;;;18.95;10.35;;;20.10;99.90;;;;;;5066715;28;20037;-56
2023/08/12 00:23:47;;;;;;;17.45;10.50;;;20.10;99.90;;;;;;5066078;28;20041;-57
2023/08/12 00:26:13;;;;;;;14.88;10.90;;;20.10;99.90;;;;;;5060634;28;20091;-56
2023/08/12 00:28:39;;;;;;;15.13;10.02;;;20.10;99.90;;;;;;5076758;28;20044;-57
2023/08/12 00:31:05;;;;;;;13.45;10.57;;;20.10;99.90;;;;;;5067744;28;20044;-57
2023/08/12 00:33:30;;;;;;;14.10;9.85;;;20.10;99.90;;;;;;5079966;28;20036;-59
2023/08/12 00:35:56;;;;;;;17.85;10.73;;;20.00;99.90;;;;;;5074350;28;20040;-57
2023/08/12 00:38:22;;;;;;;15.38;9.95;;;20.00;99.90;;;;;;5068890;28;20068;-57
2023/08/12 00:40:48;;;;;;;15.88;10.25;;;20.00;99.90;;;;;;5069984;28;20454;-57
2023/08/12 00:43:13;;;;;;;15.23;10.18;;;20.00;99.90;;;;;;5063612;28;20044;-57
2023/08/12 00:45:40;;;;;;;14.65;10.77;;;20.00;99.90;;;;;;5076013;28;20036;-57
2023/08/12 00:48:07;;;;;;;16.45;10.30;;;20.00;99.90;;;;;;5070863;28;20140;-56
2023/08/12 00:50:32;;;;;;;18.52;10.98;;;20.00;99.90;;;;;;5079919;28;20100;-57
2023/08/12 00:52:59;;;;;;;15.80;11.00;;;19.90;99.90;;;;;;5074662;28;20051;-57
2023/08/12 00:55:25;;;;;;;16.35;11.00;;;19.90;99.90;;;;;;5071243;28;20048;-57
2023/08/12 00:57:51;;;;;;;17.63;10.07;;;19.90;99.90;;;;;;5069894;28;20051;-57
2023/08/12 01:00:20;;;;;;;17.63;10.27;;;19.90;99.90;;;;;;5069155;28;20101;-56
2023/08/12 01:02:48;;;;;;;14.65;10.23;;;19.90;99.90;;;;;;5074575;28;20048;-57
2023/08/12 01:05:14;;;;;;;13.80;9.77;;;19.90;99.90;;;;;;5066852;28;20044;-56
2023/08/12 01:07:40;;;;;;;17.23;10.30;;;19.80;99.90;;;;;;5062094;28;20081;-56
2023/08/12 01:10:06;;;;;;;17.17;10.18;;;19.80;99.90;;;;;;5075371;28;20123;-56
2023/08/12 01:12:39;;;;;;;16.15;10.02;;;19.80;99.90;;;;;;5069433;28;20511;-57
2023/08/12 01:15:05;;;;;;;17.90;10.10;;;19.80;99.90;;;;;;5071301;28;20516;-57
2023/08/12 01:17:32;;;;;;;15.07;10.45;;;19.80;99.90;;;;;;5062537;28;20063;-57
2023/08/12 01:19:59;;;;;;;16.90;9.55;;;19.80;99.90;;;;;;5060341;28;20041;-57
2023/08/12 01:22:28;;;;;;;14.23;9.77;;;19.70;99.90;;;;;;5071810;28;20072;-57
2023/08/12 01:24:53;;;;;;;13.68;9.10;;;19.70;99.90;;;;;;5061999;28;20041;-57
2023/08/12 01:27:20;;;;;;;13.88;9.48;;;19.70;99.90;;;;;;5046480;28;20047;-57
2023/08/12 01:29:49;;;;;;;13.40;9.43;;;19.70;99.90;;;;;;5069086;28;20048;-56
2023/08/12 01:32:21;;;;;;;12.55;9.40;;;19.70;99.90;;;;;;5077088;28;20045;-57
2023/08/12 01:35:17;;;;;;;13.73;9.68;;;19.70;99.90;;;;;;5069192;28;20045;-56
2023/08/12 01:37:44;;;;;;;13.70;10.30;;;19.60;99.90;;;;;;5074787;28;20048;-57
2023/08/12 01:40:11;;;;;;;13.00;8.63;;;19.60;99.90;;;;;;5062445;28;20049;-58
2023/08/12 01:42:39;;;;;;;13.52;10.23;;;19.60;99.90;;;;;;5065210;28;20045;-57
2023/08/12 01:45:05;;;;;;;16.10;9.63;;;19.60;99.90;;;;;;5071797;28;20049;-57
2023/08/12 01:47:32;;;;;;;14.68;10.02;;;19.60;99.90;;;;;;5072780;28;20418;-57
2023/08/12 01:49:58;;;;;;;16.55;10.07;;;19.50;99.90;;;;;;5076307;28;20059;-57
2023/08/12 01:52:24;;;;;;;15.73;9.10;;;19.50;99.90;;;;;;5072370;28;20071;-56
2023/08/12 01:54:50;;;;;;;15.60;9.73;;;19.50;99.90;;;;;;5069144;28;20143;-57
2023/08/12 01:57:17;;;;;;;14.95;9.63;;;19.50;99.90;;;;;;5080605;28;20120;-57
2023/08/12 01:59:46;;;;;;;12.75;9.30;;;19.50;99.90;;;;;;5075060;28;20090;-57
2023/08/12 02:02:12;;;;;;;12.00;8.82;;;19.50;99.90;;;;;;5074321;28;20028;-56
2023/08/12 02:04:39;;;;;;;16.50;9.75;;;19.50;99.90;;;;;;5069375;28;20504;-56
2023/08/12 02:07:04;;;;;;;12.57;9.40;;;19.50;99.90;;;;;;5077637;28;20512;-57
2023/08/12 02:09:30;;;;;;;12.55;9.70;;;19.50;99.90;;;;;;5064886;28;20033;-56
2023/08/12 02:11:56;;;;;;;15.15;9.80;;;19.50;99.90;;;;;;5108052;28;20064;-57
2023/08/12 02:14:22;;;;;;;12.68;9.00;;;19.50;99.90;;;;;;5080895;28;20048;-57
2023/08/12 02:16:48;;;;;;;15.32;9.43;;;19.40;99.90;;;;;;5079402;28;20091;-57
2023/08/12 02:19:13;;;;;;;13.07;10.02;;;19.40;99.90;;;;;;5072181;28;20044;-57
2023/08/12 02:21:39;;;;;;;14.10;10.07;;;19.40;99.90;;;;;;5074454;28;20887;-55
2023/08/12 02:24:05;;;;;;;14.68;9.73;;;19.50;99.90;;;;;;5069938;28;20041;-57
2023/08/12 02:26:31;;;;;;;15.57;10.60;;;19.50;99.90;;;;;;5076929;28;20055;-57
2023/08/12 02:28:57;;;;;;;16.42;10.15;;;19.50;99.90;;;;;;5068347;28;20095;-57
2023/08/12 02:31:23;;;;;;;15.98;10.60;;;19.50;99.90;;;;;;5076040;28;20035;-57
2023/08/12 02:33:49;;;;;;;13.20;10.55;;;19.50;99.90;;;;;;5070597;28;20041;-57
2023/08/12 02:36:15;;;;;;;16.27;10.38;;;19.50;99.90;;;;;;5068131;28;20048;-57
2023/08/12 02:38:41;;;;;;;19.98;11.00;;;19.50;99.90;;;;;;5078031;28;20051;-56
2023/08/12 02:41:07;;;;;;;18.15;11.40;;;19.50;99.90;;;;;;5077229;28;20048;-57
2023/08/12 02:43:32;;;;;;;18.67;11.73;;;19.50;99.90;;;;;;5079055;28;21572;-57
2023/08/12 02:45:58;;;;;;;21.80;12.10;;;19.50;99.90;;;;;;5068646;28;20037;-57
2023/08/12 02:48:24;;;;;;;17.10;11.32;;;19.50;99.90;;;;;;5068443;28;20037;-56
2023/08/12 02:50:49;;;;;;;19.20;12.05;;;19.50;99.90;;;;;;5063133;28;20044;-57
2023/08/12 02:53:16;;;;;;;16.88;11.32;;;19.50;99.90;;;;;;5066777;28;20041;-56
2023/08/12 02:55:41;;;;;;;16.25;10.82;;;19.50;99.90;;;;;;5086146;28;20071;-57
2023/08/12 02:58:07;;;;;;;15.30;10.93;;;19.50;99.90;;;;;;5076692;28;20044;-57
2023/08/12 03:00:33;;;;;;;16.90;11.65;;;19.50;99.90;;;;;;5078960;28;20561;-57
2023/08/12 03:02:58;;;;;;;16.48;11.50;;;19.50;99.90;;;;;;5069316;28;20048;-57
2023/08/12 03:05:24;;;;;;;18.25;11.65;;;19.50;99.90;;;;;;5068005;28;20891;-56
2023/08/12 03:07:51;;;;;;;18.10;11.00;;;19.50;99.90;;;;;;5075461;28;20044;-57
2023/08/12 03:10:17;;;;;;;17.23;11.20;;;19.50;99.90;;;;;;5065821;28;20075;-57
2023/08/12 03:12:43;;;;;;;18.23;10.77;;;19.50;99.90;;;;;;5068230;28;20052;-57
2023/08/12 03:15:09;;;;;;;21.83;12.00;;;19.50;99.90;;;;;;5064820;28;20611;-57
2023/08/12 03:17:35;;;;;;;19.08;10.77;;;19.60;99.90;;;;;;5078550;28;20048;-57
2023/08/12 03:20:04;;;;;;;17.10;11.43;;;19.60;99.90;;;;;;5068016;28;20036;-57
2023/08/12 03:22:30;;;;;;;20.00;11.35;;;19.50;99.90;;;;;;5068830;28;20045;-57
2023/08/12 03:24:56;;;;;;;18.20;9.75;;;19.60;99.90;;;;;;5065602;28;20047;-57
2023/08/12 03:27:22;;;;;;;16.70;11.27;;;19.60;99.90;;;;;;5073143;28;20032;-57
2023/08/12 03:29:47;;;;;;;16.10;11.48;;;19.60;99.90;;;;;;5067532;28;20238;-56
2023/08/12 03:32:13;;;;;;;18.40;10.82;;;19.60;99.90;;;;;;5071969;28;20076;-57
2023/08/12 03:34:39;;;;;;;16.58;11.43;;;19.60;99.90;;;;;;5065460;28;20037;-57
2023/08/12 03:37:05;;;;;;;15.88;10.38;;;19.60;99.90;;;;;;5073497;28;20052;-57
2023/08/12 03:39:30;;;;;;;18.15;10.95;;;19.60;99.90;;;;;;5069328;28;20104;-56
2023/08/12 03:41:56;;;;;;;21.15;11.30;;;19.60;99.90;;;;;;5074477;28;20051;-57
2023/08/12 03:44:22;;;;;;;13.77;10.80;;;19.60;99.90;;;;;;5061778;28;20081;-57
2023/08/12 03:46:48;;;;;;;17.30;10.70;;;19.60;99.90;;;;;;5075392;28;20028;-56
2023/08/12 03:49:13;;;;;;;14.75;11.15;;;19.60;99.90;;;;;;5069583;28;20060;-57
2023/08/12 03:51:39;;;;;;;17.73;11.80;;;19.60;99.90;;;;;;5071285;28;20032;-57
2023/08/12 03:54:05;;;;;;;20.23;11.85;;;19.60;99.90;;;;;;5067748;28;20041;-57
2023/08/12 03:56:31;;;;;;;17.08;10.60;;;19.60;99.90;;;;;;5063901;28;20087;-57
2023/08/12 03:58:57;;;;;;;19.00;11.43;;;19.60;99.90;;;;;;5071383;28;20076;-57
2023/08/12 04:01:22;;;;;;;20.02;11.52;;;19.60;99.90;;;;;;5063053;28;20041;-57
2023/08/12 04:03:48;;;;;;;19.27;12.30;;;19.60;99.90;;;;;;5070087;28;20071;-57
2023/08/12 04:06:14;;;;;;;18.58;11.70;;;19.60;99.90;;;;;;5071484;28;20044;-57
2023/08/12 04:08:39;;;;;;;20.30;11.55;;;19.60;99.90;;;;;;5070006;28;20516;-58
2023/08/12 04:11:05;;;;;;;19.63;11.63;;;19.60;99.90;;;;;;5063465;28;20040;-58
2023/08/12 04:13:31;;;;;;;16.58;12.20;;;19.60;99.90;;;;;;5072704;28;20041;-57
2023/08/12 04:15:56;;;;;;;18.25;12.48;;;19.60;99.90;;;;;;5062539;28;20092;-59
2023/08/12 04:18:22;;;;;;;20.92;13.27;;;19.60;99.90;;;;;;5065055;28;20104;-57
2023/08/12 04:20:52;;;;;;;24.38;13.45;;;19.60;99.90;;;;;;5070756;28;20037;-57
2023/08/12 04:23:18;;;;;;;24.98;14.25;;;19.60;99.90;;;;;;5065458;28;20037;-57
2023/08/12 04:25:48;;;;;;;23.48;13.10;;;19.60;99.90;;;;;;5073238;28;20414;-57
2023/08/12 04:28:14;;;;;;;23.60;13.68;;;19.60;99.90;;;;;;5068442;28;20048;-57
2023/08/12 04:30:48;;;;;;;17.35;13.13;;;19.60;99.90;;;;;;5068429;28;20063;-57
2023/08/12 04:33:14;;;;;;;18.85;14.05;;;19.60;99.90;;;;;;5069253;28;20051;-57
2023/08/12 04:35:40;;;;;;;21.45;14.18;;;19.60;99.90;;;;;;5065962;28;20044;-57
2023/08/12 04:38:06;;;;;;;26.40;14.15;;;19.60;99.90;;;;;;5074880;28;20032;-57
2023/08/12 04:40:32;;;;;;;26.05;14.63;;;19.60;99.90;;;;;;5069090;28;20059;-56
2023/08/12 04:42:59;;;;;;;22.75;14.60;;;19.60;99.90;;;;;;5073084;28;20100;-57
2023/08/12 04:45:25;;;;;;;24.40;15.23;;;19.60;99.90;;;;;;5063611;28;20434;-57
2023/08/12 04:47:51;;;;;;;26.05;15.32;;;19.60;99.90;;;;;;5067943;28;20076;-58
2023/08/12 04:50:16;;;;;;;23.92;14.73;;;19.60;99.90;;;;;;5069719;28;20048;-57
2023/08/12 04:52:42;;;;;;;23.88;15.18;;;19.60;99.90;;;;;;5060588;28;20043;-57
2023/08/12 04:55:10;;;;;;;25.08;16.00;;;19.70;99.90;;;;;;5071013;28;20068;-57
2023/08/12 04:57:36;;;;;;;25.58;15.65;;;19.70;99.90;;;;;;5067868;28;20048;-57
2023/08/12 05:00:02;;;;;;;25.88;16.55;;;19.60;99.90;;;;;;5066269;28;20105;-57
2023/08/12 05:02:28;;;;;;;25.10;16.60;;;19.60;99.90;;;;;;5067711;28;20045;-59
2023/08/12 05:04:53;;;;;;;24.80;17.02;;;19.60;99.90;;;;;;5078115;28;20096;-57
2023/08/12 05:07:19;;;;;;;23.05;16.65;;;19.70;99.90;;;;;;5069789;28;20107;-57
2023/08/12 05:09:45;;;;;;;23.77;17.10;;;19.70;99.90;;;;;;5068306;28;20040;-57
2023/08/12 05:12:11;;;;;;;25.02;16.30;;;19.70;99.90;;;;;;5064394;28;20036;-57
2023/08/12 05:14:39;;;;;;;23.60;16.75;;;19.70;99.90;;;;;;5071558;28;20047;-57
2023/08/12 05:17:05;;;;;;;26.52;16.38;;;19.80;99.90;;;;;;5068141;28;20070;-57
2023/08/12 05:19:31;;;;;;;28.35;18.05;;;19.80;99.90;;;;;;5072607;28;20056;-57
2023/08/12 05:21:57;;;;;;;29.08;18.42;;;19.80;99.90;;;;;;5065119;28;20263;-57
2023/08/12 05:24:22;;;;;;;27.85;17.42;;;19.90;99.90;;;;;;5068755;28;20072;-57
2023/08/12 05:26:48;;;;;;;29.98;20.35;;;20.00;99.90;;;;;;5082679;28;20041;-57
2023/08/12 05:29:14;;;;;;;27.70;19.15;;;20.00;99.90;;;;;;5060195;28;20084;-57
2023/08/12 05:31:39;;;;;;;27.27;19.35;;;20.00;99.90;;;;;;5067784;28;20417;-57
2023/08/12 05:34:05;;;;;;;32.30;20.38;;;20.10;99.90;;;;;;5071754;28;20051;-58
2023/08/12 05:36:31;;;;;;;33.65;20.35;;;20.10;99.90;;;;;;5063094;28;20064;-57
2023/08/12 05:38:56;;;;;;;29.88;20.75;;;20.10;99.90;;;;;;5069855;28;20047;-57
2023/08/12 05:41:22;;;;;;;32.92;21.02;;;20.10;99.90;;;;;;5073521;28;20139;-57
2023/08/12 05:43:48;;;;;;;35.03;22.20;;;20.20;99.90;;;;;;5059734;28;20393;-57
2023/08/12 05:46:14;;;;;;;31.38;20.95;;;20.20;99.90;;;;;;5065701;28;20049;-57
2023/08/12 05:48:40;;;;;;;31.83;21.85;;;20.20;99.90;;;;;;5059357;28;20110;-58
2023/08/12 05:51:05;;;;;;;33.78;23.00;;;20.30;99.90;;;;;;5063960;28;20037;-57
2023/08/12 05:53:32;;;;;;;31.20;22.80;;;20.30;99.90;;;;;;5069705;28;20048;-58
2023/08/12 05:55:58;;;;;;;35.78;23.45;;;20.30;99.90;;;;;;5064151;28;20048;-57
2023/08/12 05:58:24;;;;;;;32.58;22.85;;;20.40;99.90;;;;;;5065884;28;20091;-56
2023/08/12 06:00:50;;;;;;;33.53;23.25;;;20.30;99.90;;;;;;5069333;28;20112;-57
2023/08/12 06:03:16;;;;;;;33.28;23.40;;;20.40;99.90;;;;;;5069853;28;20489;-57
2023/08/12 06:05:46;;;;;;;32.55;22.23;;;20.40;99.90;;;;;;5097044;28;20055;-57
2023/08/12 06:08:13;;;;;;;35.38;24.05;;;20.40;99.90;;;;;;5072987;28;20092;-57
2023/08/12 06:10:39;;;;;;;36.72;21.40;;;20.40;99.90;;;;;;5061965;28;20048;-57
2023/08/12 06:13:05;;;;;;;29.20;22.70;;;20.40;99.90;;;;;;5072421;28;20067;-57
2023/08/12 06:15:31;;;;;;;34.22;22.73;;;20.40;99.90;;;;;;5068446;28;20041;-57
2023/08/12 06:17:57;;;;;;;33.13;23.58;;;20.50;99.90;;;;;;5073317;28;20044;-57
2023/08/12 06:20:24;;;;;;;34.35;24.75;;;20.50;99.90;;;;;;5067974;28;20056;-57
2023/08/12 06:22:51;;;;;;;31.10;23.48;;;20.50;99.90;;;;;;5087320;28;20501;-57
2023/08/12 06:25:17;;;;;;;34.22;25.15;;;20.50;99.90;;;;;;5065800;28;20049;-56
2023/08/12 06:27:43;;;;;;;31.05;22.48;;;20.50;99.90;;;;;;5066642;28;20156;-57
2023/08/12 06:30:10;;;;;;;33.22;23.95;;;20.50;99.90;;;;;;5065993;28;20041;-57
2023/08/12 06:32:35;;;;;;;38.78;24.52;;;20.50;99.90;;;;;;5067255;28;20048;-57
2023/08/12 06:35:01;;;;;;;35.70;25.77;;;20.50;99.90;;;;;;5061356;28;20044;-57
2023/08/12 06:37:27;;;;;;;36.25;25.48;;;20.50;99.90;;;;;;5072688;28;20044;-57
2023/08/12 06:39:53;;;;;;;33.47;24.92;;;20.50;99.90;;;;;;5071485;28;20136;-57
2023/08/12 06:42:18;;;;;;;29.08;23.25;;;20.50;99.90;;;;;;5065968;28;20146;-57
2023/08/12 06:44:45;;;;;;;33.75;24.52;;;20.50;99.90;;;;;;5077542;28;20040;-57
2023/08/12 06:47:11;;;;;;;36.35;25.42;;;20.50;99.90;;;;;;5060711;28;20089;-55
2023/08/12 06:49:36;;;;;;;33.75;24.42;;;20.60;99.90;;;;;;5075928;28;20067;-58
2023/08/12 06:52:02;;;;;;;32.70;24.50;;;20.50;99.90;;;;;;5071314;28;20051;-57
2023/08/12 06:54:28;;;;;;;34.95;25.05;;;20.50;99.90;;;;;;5076908;28;20102;-57
2023/08/12 06:56:54;;;;;;;34.63;25.15;;;20.50;99.90;;;;;;5068561;28;20116;-57
2023/08/12 06:59:19;;;;;;;34.22;24.65;;;20.50;99.90;;;;;;5073159;28;20064;-57
2023/08/12 07:01:45;;;;;;;33.70;24.75;;;20.50;99.90;;;;;;5069328;28;20101;-57
2023/08/12 07:04:11;;;;;;;34.00;25.42;;;20.60;99.90;;;;;;5067009;28;20531;-58
2023/08/12 07:06:36;;;;;;;31.10;23.90;;;20.60;99.90;;;;;;5071214;28;20071;-57
2023/08/12 07:09:03;;;;;;;37.42;23.58;;;20.60;99.90;;;;;;5072140;28;20044;-57
2023/08/12 07:11:28;;;;;;;34.25;24.02;;;20.60;99.90;;;;;;5070470;28;20099;-57
2023/08/12 07:13:54;;;;;;;32.17;24.75;;;20.60;99.90;;;;;;5078511;28;20048;-57
2023/08/12 07:16:20;;;;;;;35.35;24.40;;;20.60;99.90;;;;;;5070095;28;20056;-57
2023/08/12 07:18:45;;;;;;;33.20;24.95;;;20.60;99.90;;;;;;5070656;28;20047;-57
2023/08/12 07:21:11;;;;;;;33.47;24.02;;;20.60;99.90;;;;;;5071070;28;20138;-59
2023/08/12 07:23:37;;;;;;;37.00;25.80;;;20.60;99.90;;;;;;5079788;28;20458;-57
2023/08/12 07:26:02;;;;;;;38.05;25.70;;;20.60;99.90;;;;;;5077814;28;20043;-57
2023/08/12 07:28:28;;;;;;;37.13;25.27;;;20.60;99.90;;;;;;5065055;28;20105;-58
2023/08/12 07:30:54;;;;;;;35.00;24.95;;;20.70;99.90;;;;;;5069680;28;20045;-57
2023/08/12 07:33:21;;;;;;;34.63;23.27;;;20.60;99.90;;;;;;5074026;28;20043;-55
2023/08/12 07:35:47;;;;;;;33.30;23.67;;;20.60;99.90;;;;;;5072909;28;20048;-56
2023/08/12 07:38:13;;;;;;;31.67;23.80;;;20.60;99.90;;;;;;5076882;28;20043;-57
2023/08/12 07:40:38;;;;;;;34.42;24.20;;;20.60;99.90;;;;;;5072714;28;20088;-56
2023/08/12 07:43:05;;;;;;;33.95;23.63;;;20.60;99.90;;;;;;5074635;28;20572;-56
2023/08/12 07:45:30;;;;;;;27.83;21.33;;;20.60;99.90;;;;;;5077157;28;20045;-57
2023/08/12 07:47:56;;;;;;;36.40;22.38;;;20.60;99.90;;;;;;5075124;28;20568;-57
2023/08/12 07:50:22;;;;;;;29.58;22.83;;;20.60;99.90;;;;;;5075198;28;20182;-57
2023/08/12 07:52:47;;;;;;;35.92;23.48;;;20.50;99.90;;;;;;5072581;28;20051;-57
2023/08/12 07:55:13;;;;;;;32.45;23.90;;;20.50;99.90;;;;;;5076019;28;20044;-58
2023/08/12 07:57:39;;;;;;;29.25;21.83;;;20.40;99.90;;;;;;5073123;28;20419;-58
2023/08/12 08:00:07;;;;;;;38.40;24.10;;;20.40;99.90;;;;;;5059110;28;20064;-57
2023/08/12 08:02:33;;;;;;;23.67;17.17;;;20.40;99.90;;;;;;5071118;28;20049;-57
2023/08/12 08:04:59;;;;;;;23.30;17.05;;;20.40;99.90;;;;;;5070019;28;20037;-57
2023/08/12 08:07:25;;;;;;;27.75;17.63;;;20.40;99.90;;;;;;5070593;28;20045;-57
2023/08/12 08:09:51;;;;;;;24.48;15.68;;;20.40;99.90;;;;;;5068218;28;20029;-58
2023/08/12 08:12:17;;;;;;;21.90;15.18;;;20.30;99.90;;;;;;5075239;28;20047;-59
2023/08/12 08:14:43;;;;;;;21.02;15.48;;;20.20;99.90;;;;;;5063078;28;20048;-58
2023/08/12 08:17:08;;;;;;;24.23;15.13;;;20.20;99.90;;;;;;5065987;28;20040;-57
2023/08/12 08:19:34;;;;;;;18.08;13.88;;;20.10;99.90;;;;;;5069316;28;20037;-58
2023/08/12 08:22:00;;;;;;;19.55;12.73;;;20.10;99.90;;;;;;5058790;28;20049;-57
2023/08/12 08:24:26;;;;;;;22.48;14.07;;;20.10;99.90;;;;;;5066077;28;20076;-56
2023/08/12 08:26:52;;;;;;;23.35;13.80;;;20.10;99.90;;;;;;5067568;28;20040;-56
2023/08/12 08:29:18;;;;;;;24.00;14.18;;;20.10;99.90;;;;;;5067976;28;20063;-57
2023/08/12 08:31:43;;;;;;;19.30;11.98;;;20.10;99.90;;;;;;5073869;28;20500;-57
2023/08/12 08:34:09;;;;;;;16.25;11.00;;;20.10;99.90;;;;;;5067420;28;20053;-57
2023/08/12 08:36:36;;;;;;;16.23;10.20;;;20.10;99.90;;;;;;5066316;28;20060;-58
2023/08/12 08:39:02;;;;;;;14.77;9.32;;;20.10;99.90;;;;;;5066785;28;20041;-58
2023/08/12 08:41:32;;;;;;;13.93;8.60;;;20.10;99.90;;;;;;5059167;28;20118;-57
2023/08/12 08:44:05;;;;;;;13.45;8.07;;;20.10;99.90;;;;;;5068237;28;20052;-57
2023/08/12 08:46:31;;;;;;;15.65;8.75;;;20.00;99.90;;;;;;5064515;28;20049;-57
2023/08/12 08:48:59;;;;;;;12.70;8.30;;;20.00;99.90;;;;;;5074615;28;20044;-57
2023/08/12 08:51:25;;;;;;;13.35;8.68;;;20.00;99.90;;;;;;5066766;28;20051;-56
2023/08/12 08:53:55;;;;;;;12.35;7.80;;;20.00;99.90;;;;;;5066749;28;20034;-58
2023/08/12 08:56:21;;;;;;;15.63;8.85;;;20.00;99.90;;;;;;5070417;28;20496;-58
2023/08/12 08:58:47;;;;;;;15.43;9.10;;;20.00;99.90;;;;;;5072553;28;20049;-58
2023/08/12 09:01:15;;;;;;;14.00;8.90;;;20.00;99.90;;;;;;5070103;28;20037;-57
2023/08/12 09:03:42;;;;;;;9.85;8.20;;;20.00;99.90;;;;;;5069843;28;20037;-58
2023/08/12 09:06:08;;;;;;;11.18;7.65;;;20.10;99.90;;;;;;5068021;28;20077;-57
2023/08/12 09:08:36;;;;;;;12.43;7.53;;;20.10;99.90;;;;;;5073149;28;20056;-58
2023/08/12 09:11:02;;;;;;;11.35;6.85;;;20.10;99.90;;;;;;5073659;28;20037;-58
2023/08/12 09:13:28;;;;;;;9.05;5.38;;;20.10;99.90;;;;;;5072031;28;20040;-56
2023/08/12 09:15:54;;;;;;;5.18;4.32;;;20.10;99.90;;;;;;5064956;28;20060;-57
2023/08/12 09:18:24;;;;;;;6.75;4.60;;;20.10;99.90;;;;;;5073681;28;20062;-56
2023/08/12 09:20:51;;;;;;;9.35;4.38;;;20.10;99.90;;;;;;5071493;28;20062;-58
2023/08/12 09:23:17;;;;;;;7.85;4.13;;;20.10;99.90;;;;;;5066117;28;20037;-57
2023/08/12 09:25:44;;;;;;;7.68;4.88;;;20.10;99.90;;;;;;5069124;28;20076;-57
2023/08/12 09:28:11;;;;;;;7.30;4.40;;;20.10;99.90;;;;;;5059935;28;20075;-58
2023/08/12 09:30:38;;;;;;;7.57;4.57;;;20.10;99.90;;;;;;5065405;28;20150;-58
2023/08/12 09:33:06;;;;;;;7.25;4.28;;;20.10;99.90;;;;;;5063810;28;20074;-58
2023/08/12 09:35:43;;;;;;;8.93;3.85;;;20.10;99.90;;;;;;5070809;28;20522;-57
2023/08/12 09:38:12;;;;;;;5.60;3.95;;;20.10;99.90;;;;;;5060688;28;20107;-56
2023/08/12 09:40:38;;;;;;;6.05;3.88;;;20.20;99.90;;;;;;5072100;28;20036;-57
2023/08/12 09:43:05;;;;;;;9.05;3.88;;;20.20;99.90;;;;;;5071131;28;20047;-57
2023/08/12 09:45:32;;;;;;;5.35;4.00;;;20.20;99.90;;;;;;5075091;28;20083;-56
2023/08/12 09:47:58;;;;;;;5.97;3.78;;;20.20;99.90;;;;;;5069855;28;20031;-56
2023/08/12 09:50:25;;;;;;;4.57;3.47;;;20.20;99.90;;;;;;5071273;28;20041;-56
2023/08/12 09:52:52;;;;;;;8.68;4.15;;;20.20;99.90;;;;;;5072978;28;20037;-56
2023/08/12 09:55:20;;;;;;;5.90;3.78;;;20.20;99.90;;;;;;5072911;28;20117;-57
2023/08/12 09:57:52;;;;;;;4.38;3.60;;;20.20;99.90;;;;;;5070266;28;20041;-56
2023/08/12 10:00:19;;;;;;;4.80;2.80;;;20.20;99.90;;;;;;5065311;28;20041;-56
2023/08/12 10:02:46;;;;;;;5.63;3.25;;;20.30;99.90;;;;;;5072529;28;20036;-56
2023/08/12 10:05:16;;;;;;;4.07;3.30;;;20.30;99.90;;;;;;5072239;28;20036;-55
2023/08/12 10:07:43;;;;;;;5.28;3.30;;;20.30;99.90;;;;;;5065527;28;20112;-55
2023/08/12 10:10:09;;;;;;;4.47;3.20;;;20.40;99.90;;;;;;5071290;28;20040;-56
2023/08/12 10:12:37;;;;;;;4.88;3.30;;;20.40;99.90;;;;;;5069726;28;20045;-55
2023/08/12 10:15:06;;;;;;;5.53;3.08;;;20.50;99.90;;;;;;5073801;28;20047;-56
2023/08/12 10:17:33;;;;;;;4.53;3.20;;;20.60;99.90;;;;;;5073192;28;20290;-56
2023/08/12 10:20:02;;;;;;;6.28;2.90;;;20.60;99.90;;;;;;5070365;28;20036;-56
2023/08/12 10:22:30;;;;;;;4.35;2.80;;;20.70;99.90;;;;;;5068205;28;20071;-57
2023/08/12 10:24:58;;;;;;;3.33;2.85;;;20.60;99.90;;;;;;5067461;28;20028;-56
2023/08/12 10:27:25;;;;;;;3.72;2.95;;;20.60;99.90;;;;;;5078788;28;20036;-56
2023/08/12 10:29:51;;;;;;;3.22;2.60;;;20.70;99.90;;;;;;5063965;28;20048;-56
2023/08/12 10:32:17;;;;;;;4.13;2.90;;;20.60;99.90;;;;;;5073665;28;20050;-57
2023/08/12 10:34:43;;;;;;;4.43;3.40;;;20.60;99.90;;;;;;5085956;28;20059;-58
2023/08/12 10:37:11;;;;;;;5.65;3.13;;;20.60;99.90;;;;;;5074193;28;20048;-57
2023/08/12 10:39:38;;;;;;;3.80;3.05;;;20.60;99.90;;;;;;5107397;28;20040;-57
2023/08/12 10:42:04;;;;;;;4.35;3.20;;;20.60;99.90;;;;;;5075200;28;20047;-58
2023/08/12 10:44:49;;;;;;;3.72;3.00;;;20.60;99.90;;;;;;5075451;28;20133;-58
2023/08/12 10:47:15;;;;;;;4.53;2.97;;;20.60;99.90;;;;;;5065288;28;20097;-57
2023/08/12 10:49:48;;;;;;;2.42;1.70;;;20.70;99.90;;;;;;5068363;28;20048;-57
2023/08/12 10:52:28;;;;;;;1.40;1.08;;;20.90;99.90;;;;;;5073608;28;20032;-57
2023/08/12 10:54:54;;;;;;;1.23;0.80;;;20.90;99.90;;;;;;5069330;28;20455;-58
2023/08/12 10:57:38;;;;;;;1.40;1.00;;;20.90;99.90;;;;;;5073859;28;20048;-58
2023/08/12 11:00:05;;;;;;;2.10;0.88;;;20.90;99.90;;;;;;5061252;28;20048;-58
2023/08/12 11:02:40;;;;;;;1.10;0.80;;;20.90;99.90;;;;;;5074635;28;20044;-58
2023/08/12 11:05:10;;;;;;;1.08;0.90;;;21.00;99.90;;;;;;5080199;28;20036;-58
2023/08/12 11:07:43;;;;;;;5.47;1.00;;;21.00;99.90;;;;;;5074097;28;20060;-58
2023/08/12 11:10:18;;;;;;;1.67;0.90;;;21.10;99.90;;;;;;5074362;28;20215;-58
2023/08/12 11:12:56;;;;;;;2.08;1.10;;;21.10;99.90;;;;;;5075909;28;20102;-58
2023/08/12 11:15:32;;;;;;;2.22;1.30;;;21.10;99.90;;;;;;5065384;28;20870;-58
2023/08/12 11:17:58;;;;;;;2.30;1.40;;;21.10;99.90;;;;;;5075908;28;20032;-58
2023/08/12 11:20:27;;;;;;;3.42;1.33;;;21.10;99.90;;;;;;5079358;28;20193;-59
2023/08/12 11:22:53;;;;;;;2.85;1.73;;;21.00;99.90;;;;;;5092194;28;20072;-58
2023/08/12 11:25:19;;;;;;;3.05;2.05;;;20.80;99.90;;;;;;5072593;28;20045;-58
2023/08/12 11:27:46;;;;;;;7.45;2.80;;;20.70;99.90;;;;;;5069183;28;20041;-58
2023/08/12 11:30:15;;;;;;;5.38;3.00;;;20.60;99.90;;;;;;5072716;28;20068;-58
2023/08/12 11:32:46;;;;;;;7.97;3.28;;;20.40;99.90;;;;;;5065233;28;20485;-58
2023/08/12 11:35:13;;;;;;;5.32;3.30;;;20.40;99.90;;;;;;5086083;28;20217;-58
2023/08/12 11:37:41;;;;;;;6.60;3.53;;;20.30;99.90;;;;;;5067571;28;20041;-59
2023/08/12 11:40:09;;;;;;;6.60;3.40;;;20.30;99.90;;;;;;5069099;28;20037;-59
2023/08/12 11:42:36;;;;;;;13.70;4.00;;;20.30;99.90;;;;;;5065289;28;20045;-59
2023/08/12 11:45:03;;;;;;;8.13;3.20;;;20.40;99.90;;;;;;5069668;28;20384;-59
2023/08/12 11:47:29;;;;;;;5.63;3.05;;;20.50;99.90;;;;;;5074591;28;20066;-59
2023/08/12 11:49:55;;;;;;;5.63;2.88;;;20.60;99.90;;;;;;5071242;28;20064;-60
2023/08/12 11:52:21;;;;;;;6.72;2.67;;;20.70;99.90;;;;;;5068199;28;20521;-59
2023/08/12 11:54:49;;;;;;;5.28;2.70;;;20.70;99.90;;;;;;5074343;28;20045;-59
2023/08/12 11:57:14;;;;;;;6.15;2.42;;;20.80;99.90;;;;;;5068212;28;20049;-59
2023/08/12 11:59:40;;;;;;;7.93;2.65;;;20.90;99.90;;;;;;5067303;28;20070;-59
2023/08/12 12:02:07;;;;;;;6.38;2.45;;;20.90;99.90;;;;;;5074198;28;20045;-59
2023/08/12 12:04:32;;;;;;;8.50;2.70;;;20.90;99.90;;;;;;5071886;28;20463;-59
2023/08/12 12:06:59;;;;;;;5.90;2.67;;;20.90;99.90;;;;;;5066606;28;20075;-59
2023/08/12 12:09:26;;;;;;;8.55;2.50;;;20.90;99.90;;;;;;5074054;28;20041;-59
2023/08/12 12:11:53;;;;;;;8.20;2.30;;;20.90;99.90;;;;;;5068618;28;20099;-59
2023/08/12 12:14:20;;;;;;;6.10;2.13;;;20.90;99.90;;;;;;5062937;28;20044;-59
2023/08/12 12:16:48;;;;;;;7.00;2.20;;;21.00;99.90;;;;;;5074539;28;20048;-59
2023/08/12 12:19:18;;;;;;;6.85;2.67;;;21.10;99.90;;;;;;5067630;28;20037;-59
2023/08/12 12:21:52;;;;;;;6.82;2.65;;;21.10;99.90;;;;;;5066998;28;20049;-58
2023/08/12 12:24:19;;;;;;;4.70;1.98;;;21.20;99.90;;;;;;5068156;28;20041;-59
2023/08/12 12:26:47;;;;;;;8.65;2.20;;;21.10;99.90;;;;;;5052550;28;20059;-58
2023/08/12 12:29:13;;;;;;;9.00;2.30;;;21.20;99.90;;;;;;5065937;28;20084;-59
2023/08/12 12:31:40;;;;;;;6.63;2.40;;;21.20;99.90;;;;;;5075161;28;20545;-58